Pagrindinis puslapis
METAR-TAF:

METAR-TAF

Oro uostai :

Jubail, Saudo Arabija

platuma: 27-02-20N, ilguma: 49-24-18E, Aukštis: 8 m

Dabartinis oras

Ataskaita buvo paskelbta 39 minutes, ne 07:00 UTC
Vėjas 7 kt iš Vakarų/Pietvakarių
Temperatūra 28°C
Drėgmė 55%
Slėgis 1016 hPa
Matomumas 10 km arba daugiau
nėra debesų žemiau 1500 m ir nėra kamuolinių lietaus debesų

METAR: OEJB 260700Z AUTO 24007KT CAVOK 28/18 Q1016 NOSIG

Laikas: 10:39 (07:39 UTC)


TAF: trūkstamas

Orai ataskaitas ir orų prognozės (METAR, TAF).

turimą stotys yra geltonos ir raudonos taškus žemėlapyje.

Perkelti pele per norėdami pamatyti stoties vardą.

Tada spustelėkite, norėdami matyti oro stebėjimo ir prognozės.

Norėdami pakeisti žemėlapį: spustelėkite ant žalios mygtukų su juodo kryžiaus žemyn,; žalią mygtuką su brūkšneliu, jei norite nutolinti; arba žalių rodyklių gretimoms žemėlapius.


METAR-TAF: